TWStats

Worldsbr139PlayersTribesLatest EnnoblementsWarsRivalriesCompare
Search

TWStatsTWStats
br139
Open
19,186653147,197

Toxic Academy

LOST
No longer exists
Compare
HomeMembersHistoryEnnoblementsTribe changesWars
VillagePointsOld ownerNew ownerEnnobled at
No records to display
Nobre AgroToxic (428|326) K3410,382drivenledge (LOST)O Rei Dos Piratas (RISE-N)3/16/26, 8:32 AM
Nobre AgroToxic (433|331) K3410,390scruffyseam (LOST)NarutoGG (TpS)3/13/26, 7:54 PM
Nobre AgroToxic (425|324) K3410,423drivenledge (LOST)NarutoGG (TpS)3/12/26, 8:56 PM
Aldeia de bárbaros (426|326) K3410,638drivenledge (LOST)NarutoGG (TpS)3/12/26, 8:47 PM
Nobre AgroToxic (426|328) K3410,432drivenledge (LOST)NarutoGG (TpS)3/12/26, 11:14 AM
Nobre AgroToxic (426|324) K3410,638drivenledge (LOST)NarutoGG (TpS)3/11/26, 6:50 PM
Aldeia de bárbaros (424|322) K3410,638drivenledge (LOST)NarutoGG (TpS)3/10/26, 11:44 AM
Nobre AgroToxic (430|326) K3410,638drivenledge (LOST)NarutoGG (TpS)3/9/26, 9:55 PM
WAP - Prepara ai tah (457|323) K342,634godpadesxd (LOST)anakata (-ROCKS)3/9/26, 8:43 PM
125 - G H O S T - (459|327) K347,484godpadesxd (LOST)- Rox (TpS)3/9/26, 9:49 AM
WAP - La vem bomba (461|325) K342,950godpadesxd (LOST)anakata (-ROCKS)3/9/26, 9:39 AM
127 - G H O S T - (461|328) K346,215godpadesxd (LOST)- Rox (TpS)3/9/26, 12:54 AM
Nobre AgroToxic (443|333) K347,803godpadesxd (LOST)- Rox (TpS)3/8/26, 11:48 PM
Nobre AgroToxic (448|329) K343,109godpadesxd (LOST)- Rox (TpS)3/8/26, 5:52 AM
124 - G H O S T - (449|327) K3410,239godpadesxd (LOST)- Rox (TpS)3/8/26, 5:31 AM
121 - G H O S T - (450|330) K349,960godpadesxd (LOST)- Rox (TpS)3/8/26, 5:27 AM
123 - G H O S T - (461|331) K349,824godpadesxd (LOST)- Rox (TpS)3/8/26, 2:15 AM
122 - G H O S T - (455|333) K3410,239godpadesxd (LOST)- Rox (TpS)3/7/26, 10:40 PM
323 - Roseira (458|339) K343,011godpadesxd (LOST)Renantm00 (-ROCKS)3/7/26, 5:34 PM
0113 (351|388) K3310,382lifelesstedium (LOST).Darck. (TpS)3/7/26, 5:29 PM
Nobre AgroToxic (450|335) K348,765godpadesxd (LOST)- Rox (TpS)3/7/26, 4:45 PM
126 - G H O S T - (453|336) K3410,239godpadesxd (LOST)- Rox (TpS)3/7/26, 3:48 PM
120 - G H O S T - (454|337) K3410,222godpadesxd (LOST)- Rox (TpS)3/7/26, 3:16 PM
- É apenas o Jonas! (451|338) K347,475godpadesxd (LOST)- Rox (TpS)3/7/26, 4:32 AM
106 - G H O S T - (452|339) K3410,239godpadesxd (LOST)- Rox (TpS)3/7/26, 3:05 AM
095 - G H O S T - (454|341) K349,499godpadesxd (LOST)- Rox (TpS)3/6/26, 9:38 PM
100 - G H O S T - (455|341) K349,765godpadesxd (LOST)- Rox (TpS)3/6/26, 9:35 PM
WAP - LA EM CIMA PAI (461|322) K342,493godpadesxd (LOST)anakata (-ROCKS)3/6/26, 3:51 PM
121 - Vila Paciência (347|392) K3310,638contemporarycensure (LOST)Renantm00 (-ROCKS)3/5/26, 11:13 PM
TPS - 099 (452|397) K344,284TiuzZin (LOST)Ripple (P1ÇA)3/4/26, 8:00 PM
139 (457|366) K346,170SOJA (LOST)BetaTW (P1ÇA)3/4/26, 7:06 PM
WAP0045 (344|388) K331,329wingedtheorizing (LOST)anakata (-ROCKS)3/4/26, 3:52 PM
139 (457|367) K3410,401SOJA (LOST)BetaTW (P1ÇA)3/4/26, 2:48 PM
TPS - 097 (455|396) K3410,362TiuzZin (LOST)Ripple (P1ÇA)3/3/26, 8:28 PM
0075 (346|389) K3310,382wingedtheorizing (LOST).Darck. (TpS)3/2/26, 2:53 AM
Aldeia de bárbaros (443|328) K341,040-godpadesxd (LOST)3/1/26, 11:43 AM
WAP - ISSO, LAH EM CIMA MANO (456|324) K341,285-godpadesxd (LOST)3/1/26, 9:31 AM
021 (441|381) K348,248kill zone 3 (LOST)Gustavo-123 (TpS)3/1/26, 6:28 AM
- J J - (394|430) K4311,135FlyingFox (LOST)NarutoGG (TpS)3/1/26, 2:09 AM
Aldeia de bárbaros (454|325) K341,484-godpadesxd (LOST)2/27/26, 8:28 PM
Aldeia de bárbaros (452|329) K341,536-godpadesxd (LOST)2/27/26, 6:44 PM
139 (433|430) K443,264SOJA (LOST)BetaTW (P1ÇA)2/26/26, 3:51 PM
Aldeia de bárbaros (428|323) K349,166centrifugalclapper (aioba)scruffyseam (LOST)2/24/26, 2:12 PM
0124 (467|435) K441,491TiuzZin (LOST)Ripple (P1ÇA)2/24/26, 1:40 PM
Nobre AgroToxic (433|331) K349,397continuousriverbed (aioba)scruffyseam (LOST)2/24/26, 12:16 PM
Nobre AgroToxic (425|324) K349,397committedearner (aioba)drivenledge (LOST)2/24/26, 10:52 AM
0124 (467|435) K441,498-TiuzZin (LOST)2/24/26, 5:45 AM
Nobre AgroToxic (434|330) K349,387Dark of World (aioba)scruffyseam (LOST)2/24/26, 2:04 AM
Nobre AgroToxic (434|329) K349,331Kamper (aioba)scruffyseam (LOST)2/24/26, 1:38 AM
Nobre AgroToxic (434|328) K348,404salada19 (aioba)scruffyseam (LOST)2/23/26, 2:07 PM
  • Previous
  • Next
© 2026 TribalKit